createdAt,value
2023-09-27T00:02:24.160Z,4.20
2023-09-27T00:04:52.317Z,4.22
2023-09-27T00:07:19.745Z,4.03
2023-09-27T00:09:46.777Z,4.13
2023-09-27T00:12:14.118Z,4.13
2023-09-27T00:14:41.069Z,3.83
2023-09-27T00:17:08.484Z,4.45
2023-09-27T00:19:35.711Z,4.78
2023-09-27T00:22:04.980Z,4.80
2023-09-27T00:24:32.001Z,4.43
2023-09-27T00:26:59.236Z,3.70
2023-09-27T00:29:26.802Z,4.32
2023-09-27T00:31:54.213Z,4.93
2023-09-27T00:34:21.239Z,3.92
2023-09-27T00:36:48.455Z,3.65
2023-09-27T00:39:15.533Z,4.18
2023-09-27T00:41:42.948Z,4.28
2023-09-27T00:44:10.068Z,4.28
2023-09-27T00:46:39.982Z,4.07
2023-09-27T00:49:09.507Z,4.35
2023-09-27T00:51:38.077Z,3.83
2023-09-27T00:54:08.102Z,3.83
2023-09-27T00:56:37.246Z,4.57
2023-09-27T00:59:06.500Z,3.92
2023-09-27T01:01:35.470Z,3.97
2023-09-27T01:04:04.119Z,3.70
2023-09-27T01:06:32.656Z,3.45
2023-09-27T01:09:02.023Z,3.80
2023-09-27T01:11:30.588Z,3.30
2023-09-27T01:13:58.016Z,4.40
2023-09-27T01:16:27.314Z,3.60
2023-09-27T01:18:54.515Z,4.45
2023-09-27T01:21:22.226Z,3.45
2023-09-27T01:23:51.520Z,3.42
2023-09-27T01:26:22.718Z,3.60
2023-09-27T01:28:50.160Z,3.85
2023-09-27T01:31:17.699Z,3.33
2023-09-27T01:33:44.896Z,3.42
2023-09-27T01:36:12.979Z,4.35
2023-09-27T01:38:40.194Z,3.60
2023-09-27T01:41:07.465Z,3.72
2023-09-27T01:43:34.458Z,3.72
2023-09-27T01:46:04.096Z,3.90
2023-09-27T01:48:31.250Z,4.30
2023-09-27T01:50:58.688Z,3.47
2023-09-27T01:53:26.904Z,3.35
2023-09-27T01:55:54.287Z,3.80
2023-09-27T01:58:21.413Z,3.67
2023-09-27T02:00:48.819Z,3.88
2023-09-27T02:03:15.868Z,3.83
2023-09-27T02:05:43.425Z,3.65
2023-09-27T02:08:12.957Z,3.33
2023-09-27T02:10:40.360Z,3.97
2023-09-27T02:13:07.327Z,3.13
2023-09-27T02:15:34.656Z,3.70
2023-09-27T02:18:04.302Z,3.53
2023-09-27T02:20:31.640Z,4.25
2023-09-27T02:22:59.676Z,3.97
2023-09-27T02:25:27.228Z,2.97
2023-09-27T02:27:54.299Z,3.40
2023-09-27T02:30:21.779Z,3.28
2023-09-27T02:32:49.040Z,3.83
2023-09-27T02:35:18.521Z,4.65
2023-09-27T02:37:45.645Z,5.22
2023-09-27T02:40:17.236Z,3.88
2023-09-27T02:42:48.173Z,3.67
2023-09-27T02:45:16.005Z,3.90
2023-09-27T02:47:48.066Z,3.72
2023-09-27T02:50:16.714Z,3.50
2023-09-27T02:52:46.520Z,5.13
2023-09-27T02:55:15.262Z,4.60
2023-09-27T02:57:43.854Z,3.40
2023-09-27T03:00:12.622Z,3.20
2023-09-27T03:02:39.907Z,3.67
2023-09-27T03:05:09.313Z,4.15
2023-09-27T03:07:39.183Z,4.80
2023-09-27T03:10:09.717Z,3.72
2023-09-27T03:12:36.929Z,4.07
2023-09-27T03:15:12.571Z,3.67
2023-09-27T03:17:43.741Z,4.43
2023-09-27T03:20:20.357Z,3.50
2023-09-27T03:22:48.905Z,3.65
2023-09-27T03:25:18.575Z,3.63
2023-09-27T03:27:46.730Z,4.18
2023-09-27T03:30:14.002Z,4.28
2023-09-27T03:32:42.099Z,3.75
2023-09-27T03:35:10.260Z,4.63
2023-09-27T03:37:37.668Z,4.47
2023-09-27T03:40:17.197Z,5.80
2023-09-27T03:42:46.980Z,13.50
2023-09-27T03:45:16.525Z,8.07
2023-09-27T03:47:47.454Z,7.28
2023-09-27T03:50:19.450Z,8.68
2023-09-27T03:52:46.687Z,5.97
2023-09-27T03:55:14.261Z,7.30
2023-09-27T03:57:42.372Z,6.63
2023-09-27T04:00:20.648Z,6.72
2023-09-27T04:02:49.416Z,6.22
2023-09-27T04:05:24.104Z,6.95
2023-09-27T04:07:51.188Z,7.35
2023-09-27T04:10:20.740Z,6.88
2023-09-27T04:12:48.690Z,7.13
2023-09-27T04:15:16.097Z,6.10
2023-09-27T04:17:43.287Z,7.20
2023-09-27T04:20:20.293Z,7.45
2023-09-27T04:22:49.944Z,5.53
2023-09-27T04:25:18.911Z,6.63
2023-09-27T04:27:51.301Z,6.53
2023-09-27T04:30:21.009Z,5.70
2023-09-27T04:32:55.032Z,6.15
2023-09-27T04:35:22.906Z,6.55
2023-09-27T04:37:50.743Z,5.90
2023-09-27T04:40:18.700Z,6.45
2023-09-27T04:42:47.234Z,6.70
2023-09-27T04:45:15.508Z,6.18
2023-09-27T04:47:45.858Z,6.30
2023-09-27T04:50:14.960Z,6.00
2023-09-27T04:52:43.072Z,5.43
2023-09-27T04:55:11.273Z,6.15
2023-09-27T04:57:38.415Z,5.68
2023-09-27T05:00:15.655Z,5.82
2023-09-27T05:02:43.215Z,6.07
2023-09-27T05:05:10.914Z,6.60
2023-09-27T05:07:38.709Z,6.32
2023-09-27T05:10:07.134Z,5.88
2023-09-27T05:12:34.358Z,5.78
2023-09-27T05:15:01.865Z,5.82
2023-09-27T05:17:29.036Z,5.50
2023-09-27T05:19:56.520Z,6.10
2023-09-27T05:22:23.708Z,6.45
2023-09-27T05:24:51.057Z,5.95
2023-09-27T05:27:18.844Z,6.68
2023-09-27T05:29:46.733Z,6.75
2023-09-27T05:32:13.834Z,5.88
2023-09-27T05:34:41.179Z,6.97
2023-09-27T05:37:08.405Z,8.27
2023-09-27T05:39:35.664Z,7.32
2023-09-27T05:42:02.736Z,8.77
2023-09-27T05:44:30.093Z,6.80
2023-09-27T05:46:57.345Z,9.98
2023-09-27T05:49:25.815Z,9.45
2023-09-27T05:51:53.684Z,10.90
2023-09-27T05:54:21.102Z,13.02
2023-09-27T05:56:52.738Z,10.98
2023-09-27T05:59:20.397Z,11.63
2023-09-27T06:01:48.494Z,12.43
2023-09-27T06:04:15.907Z,10.15
2023-09-27T06:06:43.007Z,10.60
2023-09-27T06:09:10.969Z,7.90
2023-09-27T06:11:38.355Z,11.95
2023-09-27T06:14:12.146Z,14.90
2023-09-27T06:16:40.484Z,9.52
2023-09-27T06:19:09.685Z,9.48
2023-09-27T06:21:36.971Z,15.82
2023-09-27T06:24:06.294Z,9.60
2023-09-27T06:26:33.615Z,9.90
2023-09-27T06:29:01.147Z,11.45
2023-09-27T06:31:30.214Z,9.15
2023-09-27T06:33:57.625Z,9.95
2023-09-27T06:36:24.754Z,10.52
2023-09-27T06:38:52.693Z,11.80
2023-09-27T06:41:20.013Z,11.40
2023-09-27T06:43:47.405Z,12.07
2023-09-27T06:46:17.915Z,12.32
2023-09-27T06:48:45.508Z,12.10
2023-09-27T06:51:14.816Z,12.30
2023-09-27T06:53:43.768Z,11.18
2023-09-27T06:56:10.953Z,11.38
2023-09-27T06:58:38.681Z,12.25
2023-09-27T07:01:05.838Z,10.73
2023-09-27T07:03:35.340Z,9.10
2023-09-27T07:06:04.343Z,11.30
2023-09-27T07:08:31.806Z,9.25
2023-09-27T07:11:10.368Z,9.05
2023-09-27T07:13:43.860Z,12.13
2023-09-27T07:16:28.131Z,9.38
2023-09-27T07:19:02.499Z,12.55
2023-09-27T07:21:31.515Z,10.93
2023-09-27T07:23:58.789Z,9.18
2023-09-27T07:26:25.950Z,11.57
2023-09-27T07:28:53.714Z,10.25
2023-09-27T07:31:21.215Z,13.38
2023-09-27T07:33:55.731Z,11.52
2023-09-27T07:36:26.013Z,8.82
2023-09-27T07:38:56.589Z,9.20
2023-09-27T07:41:23.636Z,11.05
2023-09-27T07:43:51.850Z,9.55
2023-09-27T07:46:20.524Z,10.82
2023-09-27T07:48:47.995Z,8.02
2023-09-27T07:51:21.163Z,13.07
2023-09-27T07:53:48.633Z,9.32
2023-09-27T07:56:24.575Z,9.80
2023-09-27T07:58:54.811Z,8.07
2023-09-27T08:01:23.832Z,10.32
2023-09-27T08:04:13.593Z,8.70
2023-09-27T08:06:41.149Z,10.75
2023-09-27T08:09:17.628Z,7.43
2023-09-27T08:11:51.984Z,9.43
2023-09-27T08:14:20.666Z,8.77
2023-09-27T08:16:48.097Z,6.82
2023-09-27T08:19:17.110Z,8.32
2023-09-27T08:21:44.561Z,7.88
2023-09-27T08:24:11.858Z,6.70
2023-09-27T08:26:38.942Z,7.65
2023-09-27T08:29:06.980Z,7.13
2023-09-27T08:31:37.259Z,6.72
2023-09-27T08:34:05.263Z,7.10
2023-09-27T08:36:32.508Z,9.70
2023-09-27T08:39:00.022Z,8.15
2023-09-27T08:41:29.298Z,6.90
2023-09-27T08:43:58.524Z,10.50
2023-09-27T08:46:26.524Z,7.38
2023-09-27T08:48:57.254Z,9.40
2023-09-27T08:51:26.569Z,8.75
2023-09-27T08:53:54.149Z,8.90
2023-09-27T08:56:23.162Z,5.97
2023-09-27T08:58:51.491Z,8.20
2023-09-27T09:01:19.550Z,7.47
2023-09-27T09:03:48.056Z,8.50
2023-09-27T09:06:16.864Z,6.28
2023-09-27T09:08:44.598Z,7.57
2023-09-27T09:11:17.866Z,8.88
2023-09-27T09:14:04.993Z,7.38
2023-09-27T09:16:41.409Z,6.50
2023-09-27T09:19:37.472Z,8.40
2023-09-27T09:22:12.855Z,5.78
2023-09-27T09:24:43.224Z,7.20
2023-09-27T09:27:17.287Z,6.97
2023-09-27T09:29:53.983Z,6.82
2023-09-27T09:32:29.498Z,5.72
2023-09-27T09:34:57.227Z,7.03
2023-09-27T09:37:30.758Z,5.60
2023-09-27T09:40:15.925Z,6.22
2023-09-27T09:42:44.532Z,6.30
2023-09-27T09:45:13.738Z,5.80
2023-09-27T09:47:45.576Z,5.00
2023-09-27T09:50:18.560Z,6.05
2023-09-27T10:01:19.734Z,7.22
2023-09-27T10:03:51.479Z,6.28
2023-09-27T10:06:36.979Z,5.18
2023-09-27T10:09:16.081Z,6.45
2023-09-27T10:11:47.929Z,6.22
2023-09-27T10:14:19.408Z,5.15
2023-09-27T10:16:49.373Z,5.55
2023-09-27T10:19:30.753Z,6.95
2023-09-27T10:22:07.088Z,6.07
2023-09-27T10:24:37.166Z,6.13
2023-09-27T10:27:04.395Z,6.53
2023-09-27T10:29:31.885Z,6.70
2023-09-27T10:31:58.909Z,6.18
2023-09-27T10:34:29.083Z,5.72
2023-09-27T10:37:17.352Z,5.90
2023-09-27T10:40:22.790Z,7.05
2023-09-27T10:42:50.224Z,8.50
2023-09-27T10:45:18.425Z,4.70
2023-09-27T10:47:48.011Z,5.80
2023-09-27T10:50:17.847Z,6.78
2023-09-27T10:52:45.065Z,5.63
2023-09-27T10:55:14.506Z,7.82
2023-09-27T10:57:42.662Z,5.95
2023-09-27T11:00:13.755Z,6.60
2023-09-27T11:02:42.900Z,5.70
2023-09-27T11:05:10.897Z,8.25
2023-09-27T11:07:51.636Z,8.73
2023-09-27T11:10:31.732Z,7.88
2023-09-27T11:13:07.871Z,6.15
2023-09-27T11:15:35.231Z,7.50
2023-09-27T11:18:02.383Z,6.53
2023-09-27T11:20:34.287Z,6.35
2023-09-27T11:23:05.098Z,8.93
2023-09-27T11:25:37.714Z,5.43
2023-09-27T11:28:16.190Z,14.60
2023-09-27T11:30:44.014Z,5.68
2023-09-27T11:33:14.617Z,4.97
2023-09-27T11:35:50.393Z,4.90
2023-09-27T11:38:17.728Z,6.78
2023-09-27T11:40:49.744Z,6.15
2023-09-27T11:43:18.730Z,6.85
2023-09-27T11:45:49.232Z,4.97
2023-09-27T11:48:18.118Z,4.80
2023-09-27T11:50:45.682Z,5.85
2023-09-27T11:53:13.743Z,6.65
2023-09-27T11:55:42.394Z,5.65
2023-09-27T11:58:10.141Z,7.03
2023-09-27T12:00:37.492Z,6.75
2023-09-27T12:03:05.872Z,5.78
2023-09-27T12:05:38.680Z,8.80
2023-09-27T12:08:07.945Z,5.88
2023-09-27T12:10:35.495Z,7.13
2023-09-27T12:13:03.676Z,6.47
2023-09-27T12:15:30.982Z,7.13
2023-09-27T12:17:58.181Z,6.10
2023-09-27T12:22:59.552Z,7.35
2023-09-27T12:25:28.088Z,6.45
2023-09-27T12:27:55.256Z,5.63
2023-09-27T12:30:22.502Z,7.03
2023-09-27T12:32:49.789Z,7.35
2023-09-27T12:35:17.389Z,5.68
2023-09-27T12:37:44.564Z,8.20
2023-09-27T12:40:12.874Z,6.10
2023-09-27T12:42:41.047Z,4.75
2023-09-27T12:45:09.310Z,7.72
2023-09-27T12:47:37.388Z,5.93
2023-09-27T12:50:07.708Z,6.35
2023-09-27T12:52:35.598Z,7.55
2023-09-27T12:55:03.265Z,8.95
2023-09-27T12:57:30.410Z,6.70
2023-09-27T12:59:57.990Z,6.03
2023-09-27T13:02:25.886Z,7.50
2023-09-27T13:04:53.808Z,8.32
2023-09-27T13:07:20.906Z,6.55
2023-09-27T13:09:48.205Z,7.82
2023-09-27T13:12:15.604Z,7.15
2023-09-27T13:14:42.978Z,6.20
2023-09-27T13:17:11.140Z,7.40
2023-09-27T13:19:38.660Z,7.07
2023-09-27T13:22:05.999Z,8.13
2023-09-27T13:24:33.362Z,7.10
2023-09-27T13:27:10.527Z,7.75
2023-09-27T13:29:40.379Z,10.45
2023-09-27T13:32:07.672Z,6.35
2023-09-27T13:34:35.669Z,7.70
2023-09-27T13:37:03.155Z,8.75
2023-09-27T13:39:31.046Z,6.32
2023-09-27T13:41:58.317Z,5.97
2023-09-27T13:44:25.625Z,6.28
2023-09-27T13:46:53.065Z,9.23
2023-09-27T13:49:25.410Z,8.10
2023-09-27T13:51:52.510Z,11.02
2023-09-27T13:54:20.836Z,9.30
2023-09-27T13:56:48.415Z,6.43
2023-09-27T13:59:15.876Z,10.93
2023-09-27T14:01:43.009Z,8.32
2023-09-27T14:04:10.452Z,7.10
2023-09-27T14:06:37.549Z,9.18
2023-09-27T14:09:05.032Z,8.88
2023-09-27T14:11:32.250Z,8.60
2023-09-27T14:13:59.537Z,7.90
2023-09-27T14:16:26.756Z,7.57
2023-09-27T14:18:54.871Z,6.55
2023-09-27T14:21:22.574Z,7.60
2023-09-27T14:23:49.955Z,8.98
2023-09-27T14:26:20.296Z,6.72
2023-09-27T14:28:48.823Z,6.47
2023-09-27T14:31:19.095Z,9.02
2023-09-27T14:33:46.581Z,8.23
2023-09-27T14:36:13.692Z,8.10
2023-09-27T14:38:41.299Z,11.00
2023-09-27T14:41:11.235Z,9.35
2023-09-27T14:43:39.366Z,8.77
2023-09-27T14:46:14.121Z,7.40
2023-09-27T14:48:41.838Z,9.55
2023-09-27T14:51:13.076Z,8.43
2023-09-27T14:53:42.371Z,8.60
2023-09-27T14:56:11.010Z,7.82
2023-09-27T14:58:38.476Z,8.32
2023-09-27T15:01:05.996Z,7.72
2023-09-27T15:03:34.459Z,5.55
2023-09-27T15:06:03.339Z,6.93
2023-09-27T15:08:34.000Z,8.18
2023-09-27T15:11:02.043Z,9.55
2023-09-27T15:13:31.112Z,9.40
2023-09-27T15:16:02.574Z,7.30
2023-09-27T15:18:30.609Z,10.93
2023-09-27T15:20:57.650Z,7.55
2023-09-27T15:23:31.344Z,8.02
2023-09-27T15:25:59.730Z,6.53
2023-09-27T15:28:27.292Z,9.63
2023-09-27T15:30:54.537Z,9.05
2023-09-27T15:33:23.411Z,7.60
2023-09-27T15:36:03.685Z,5.97
2023-09-27T15:38:30.990Z,7.72
2023-09-27T15:40:58.001Z,8.70
2023-09-27T15:43:25.408Z,6.15
2023-09-27T15:46:01.459Z,6.43
2023-09-27T15:48:33.031Z,6.43
2023-09-27T15:51:05.503Z,6.45
2023-09-27T15:53:34.528Z,6.15
2023-09-27T15:56:05.026Z,6.40
2023-09-27T15:58:33.413Z,6.07
2023-09-27T16:01:02.639Z,5.80
2023-09-27T16:03:30.996Z,5.53
2023-09-27T16:05:59.875Z,6.72
2023-09-27T16:08:28.587Z,6.97
2023-09-27T16:10:56.942Z,6.18
2023-09-27T16:13:24.552Z,4.55
2023-09-27T16:15:53.400Z,4.82
2023-09-27T16:18:37.651Z,5.50
2023-09-27T16:21:05.226Z,7.15
2023-09-27T16:23:32.885Z,5.88
2023-09-27T16:26:00.819Z,5.80
2023-09-27T16:28:30.016Z,5.63
2023-09-27T16:30:58.532Z,6.38
2023-09-27T16:33:27.281Z,7.28
2023-09-27T16:35:54.537Z,5.40
2023-09-27T16:38:21.871Z,5.93
2023-09-27T16:40:49.034Z,5.25
2023-09-27T16:43:18.271Z,5.57
2023-09-27T16:45:45.579Z,5.75
2023-09-27T16:48:13.016Z,5.85
2023-09-27T16:50:40.975Z,7.85
2023-09-27T16:53:08.636Z,6.22
2023-09-27T16:55:36.505Z,7.07
2023-09-27T16:58:06.819Z,6.60
2023-09-27T17:00:34.141Z,6.18
2023-09-27T17:03:01.693Z,6.20
2023-09-27T17:05:28.940Z,7.20
2023-09-27T17:07:56.251Z,7.60
2023-09-27T17:10:23.588Z,6.30
2023-09-27T17:12:50.959Z,5.65
2023-09-27T17:15:20.675Z,8.23
2023-09-27T17:17:48.053Z,8.43
2023-09-27T17:20:15.204Z,9.20
2023-09-27T17:22:42.630Z,7.22
2023-09-27T17:25:11.037Z,7.85
2023-09-27T17:27:38.842Z,7.55
2023-09-27T17:30:08.494Z,8.77
2023-09-27T17:32:36.836Z,7.55
2023-09-27T17:35:05.969Z,11.43
2023-09-27T17:37:33.642Z,11.88
2023-09-27T17:40:04.660Z,10.65
2023-09-27T17:42:32.116Z,8.60
2023-09-27T17:44:59.140Z,10.32
2023-09-27T17:47:26.697Z,9.52
2023-09-27T17:49:53.911Z,11.05
2023-09-27T17:52:22.015Z,11.45
2023-09-27T17:54:49.582Z,10.35
2023-09-27T17:57:18.507Z,9.65
2023-09-27T17:59:46.609Z,7.47
2023-09-27T18:02:13.996Z,11.00
2023-09-27T18:04:41.244Z,9.32
2023-09-27T18:07:08.735Z,8.85
2023-09-27T18:09:37.111Z,9.27
2023-09-27T18:12:05.337Z,9.05
2023-09-27T18:14:32.374Z,8.75
2023-09-27T18:17:00.552Z,9.57
2023-09-27T18:19:29.306Z,8.02
2023-09-27T18:21:57.497Z,9.60
2023-09-27T18:24:25.867Z,9.40
2023-09-27T18:26:53.277Z,8.18
2023-09-27T18:29:20.487Z,7.57
2023-09-27T18:31:48.239Z,7.95
2023-09-27T18:34:15.390Z,9.57
2023-09-27T18:36:42.969Z,7.68
2023-09-27T18:39:10.185Z,9.15
2023-09-27T18:41:37.904Z,9.23
2023-09-27T18:44:05.646Z,7.53
2023-09-27T18:46:35.004Z,9.85
2023-09-27T18:49:04.259Z,9.05
2023-09-27T18:51:31.933Z,7.63
2023-09-27T18:53:59.386Z,7.45
2023-09-27T18:56:27.125Z,8.27
2023-09-27T18:58:59.784Z,7.95
2023-09-27T19:01:28.069Z,7.95
2023-09-27T19:03:59.388Z,7.22
2023-09-27T19:06:27.641Z,7.30
2023-09-27T19:08:55.518Z,8.38
2023-09-27T19:11:23.149Z,8.75
2023-09-27T19:13:50.464Z,8.35
2023-09-27T19:16:17.993Z,8.02
2023-09-27T19:18:45.076Z,10.15
2023-09-27T19:21:12.611Z,8.98
2023-09-27T19:23:40.892Z,9.07
2023-09-27T19:26:08.695Z,8.82
2023-09-27T19:28:37.413Z,10.02
2023-09-27T19:31:08.472Z,8.00
2023-09-27T19:33:42.581Z,8.95
2023-09-27T19:36:20.976Z,8.40
2023-09-27T19:38:49.175Z,9.75
2023-09-27T19:41:16.979Z,9.57
2023-09-27T19:43:44.393Z,10.00
2023-09-27T19:46:12.619Z,10.65
2023-09-27T19:48:44.924Z,9.65
2023-09-27T19:51:23.731Z,7.68
2023-09-27T19:53:53.065Z,7.05
2023-09-27T19:56:22.503Z,7.03
2023-09-27T19:58:50.248Z,8.98
2023-09-27T20:01:37.947Z,8.30
2023-09-27T20:04:06.161Z,8.73
2023-09-27T20:06:40.975Z,7.07
2023-09-27T20:09:11.061Z,7.15
2023-09-27T20:11:38.971Z,9.40
2023-09-27T20:14:06.728Z,7.88
2023-09-27T20:16:34.324Z,8.70
2023-09-27T20:19:05.337Z,7.78
2023-09-27T20:21:35.984Z,10.03
2023-09-27T20:24:04.187Z,8.68
2023-09-27T20:26:31.498Z,8.18
2023-09-27T20:28:58.747Z,8.07
2023-09-27T20:31:26.161Z,7.88
2023-09-27T20:33:53.731Z,9.25
2023-09-27T20:36:21.349Z,8.02
2023-09-27T20:38:48.565Z,7.68
2023-09-27T20:41:21.637Z,9.13
2023-09-27T20:43:49.186Z,7.82
2023-09-27T20:46:17.399Z,7.97
2023-09-27T20:48:44.908Z,8.90
2023-09-27T20:51:15.289Z,9.93
2023-09-27T20:53:42.429Z,7.97
2023-09-27T20:56:10.660Z,7.28
2023-09-27T20:58:41.623Z,7.95
2023-09-27T21:01:29.216Z,9.73
2023-09-27T21:03:57.423Z,7.47
2023-09-27T21:06:29.616Z,8.40
2023-09-27T21:09:04.400Z,8.55
2023-09-27T21:11:32.502Z,7.32
2023-09-27T21:14:02.783Z,7.97
2023-09-27T21:16:34.194Z,9.95
2023-09-27T21:19:02.215Z,8.90
2023-09-27T21:21:31.135Z,7.90
2023-09-27T21:23:58.409Z,8.20
2023-09-27T21:26:26.098Z,9.90
2023-09-27T21:28:53.220Z,8.18
2023-09-27T21:31:21.261Z,7.63
2023-09-27T21:33:48.658Z,8.77
2023-09-27T21:36:18.191Z,8.60
2023-09-27T21:38:45.513Z,9.32
2023-09-27T21:41:12.945Z,9.20
2023-09-27T21:43:40.355Z,8.80
2023-09-27T21:46:20.807Z,10.20
2023-09-27T21:48:51.648Z,10.38
2023-09-27T21:51:19.343Z,10.32
2023-09-27T21:53:46.812Z,9.13
2023-09-27T21:56:14.818Z,10.05
2023-09-27T21:58:43.293Z,10.02
2023-09-27T22:01:15.088Z,8.60
2023-09-27T22:03:43.126Z,9.38
2023-09-27T22:06:11.469Z,8.45
2023-09-27T22:08:38.741Z,8.60
2023-09-27T22:11:06.046Z,9.05
2023-09-27T22:13:39.129Z,8.98
2023-09-27T22:16:11.343Z,8.23
2023-09-27T22:18:49.232Z,9.10
2023-09-27T22:21:32.185Z,8.32
2023-09-27T22:24:09.831Z,8.00
2023-09-27T22:26:38.860Z,8.43
2023-09-27T22:29:09.966Z,8.85
2023-09-27T22:31:39.487Z,8.60
2023-09-27T22:34:23.650Z,8.18
2023-09-27T22:36:54.354Z,8.35
2023-09-27T22:39:22.829Z,7.63
2023-09-27T22:41:53.328Z,8.38
2023-09-27T22:44:21.930Z,8.00
2023-09-27T22:46:54.849Z,7.32
2023-09-27T22:49:24.438Z,7.72
2023-09-27T22:51:52.487Z,6.60
2023-09-27T22:54:22.879Z,7.32
2023-09-27T22:56:53.445Z,7.90
2023-09-27T22:59:22.378Z,8.63
2023-09-27T23:01:52.172Z,7.82
2023-09-27T23:04:23.944Z,8.63
2023-09-27T23:09:38.219Z,7.93
2023-09-27T23:12:20.315Z,7.18
2023-09-27T23:15:07.171Z,7.22
2023-09-27T23:17:56.604Z,7.90
2023-09-27T23:20:29.963Z,6.15
2023-09-27T23:22:58.530Z,7.78
2023-09-27T23:25:41.329Z,7.97
2023-09-27T23:30:35.877Z,7.15
2023-09-27T23:33:04.531Z,7.05
2023-09-27T23:35:32.299Z,7.53
2023-09-27T23:38:10.817Z,7.65
2023-09-27T23:40:42.481Z,9.40
2023-09-27T23:43:10.377Z,13.32
2023-09-27T23:45:38.863Z,10.23
2023-09-27T23:48:12.228Z,10.02
2023-09-27T23:50:41.709Z,12.30
2023-09-27T23:53:11.097Z,20.08
2023-09-27T23:55:42.192Z,11.93
2023-09-27T23:58:13.935Z,10.70
